Flight Track Log - Related Links

Times and Time Zones

All times are in EDT time to prevent confusion due to time zone crossing. See the EJA922 flight status page for this flight to view local times or setup timezone preferences in your user account.


Time Position Orientation Groundspeed Altitude Reporting Facility
EDT Latitude Longitude Course Direction KTS MPH feet Rate Location/Type
Sun 12:09:52 PM 47.5514 -122.3217 327° Northwest 184 212 1,200  Level Seattle Center
Sun 12:11:05 PM 47.6075 -122.3761 327° Northwest 204 235 2,700 976 Climbing Seattle Center
Sun 12:11:55 PM 47.5944 -122.4364 252° West 203 234 3,200 1,243 Climbing Seattle Center
Sun 12:12:56 PM 47.5350 -122.4378 181° South 216 249 5,000 2,098 Climbing Seattle Center
Sun 12:13:58 PM 47.4664 -122.4344 178° South 235 270 7,500 2,146 Climbing Seattle Center
Sun 12:14:59 PM 47.3936 -122.4181 171° South 276 318 9,400 1,672 Climbing Seattle Center
Sun 12:16:00 PM 47.3125 -122.3714 159° South 316 364 10,900 1,721 Climbing Seattle Center
Sun 12:17:01 PM 47.2131 -122.3175 160° South 356 410 12,900 1,918 Climbing Seattle Center
Sun 12:18:02 PM 47.1172 -122.2636 159° South 369 425 14,800 1,869 Climbing Seattle Center
Sun 12:19:03 PM 47.0178 -122.2078 159° South 382 440 16,700 1,623 Climbing Seattle Center
Sun 12:20:04 PM 46.9292 -122.1589 159° South 385 443 18,100 1,475 Climbing Seattle Center
Sun 12:21:05 PM 46.8281 -122.1017 159° South 392 451 19,700 1,623 Climbing Seattle Center
Sun 12:22:06 PM 46.7264 -121.9814 141° Southeast 411 473 21,400 1,463 Climbing Seattle Center
Sun 12:23:08 PM 46.6722 -121.8328 118° Southeast 419 482 22,700 1,317 Climbing Seattle Center
Sun 12:24:09 PM 46.6481 -121.6611 102° East 434 499 24,100 1,377 Climbing Seattle Center
Sun 12:25:10 PM 46.6225 -121.4819 102° East 444 511 25,500 1,377 Climbing Seattle Center
Sun 12:26:11 PM 46.5975 -121.3036 101° East 450 518 26,900 1,377 Climbing Seattle Center
Sun 12:27:12 PM 46.5717 -121.1239 102° East 455 524 28,300 1,426 Climbing Seattle Center
Sun 12:28:13 PM 46.5272 -120.9514 110° East 453 521 29,800 1,475 Climbing Seattle Center
Sun 12:29:14 PM 46.4611 -120.7894 121° Southeast 466 536 31,300 1,525 Climbing Seattle Center
Sun 12:30:15 PM 46.3964 -120.6286 120° Southeast 465 535 32,900 1,463 Climbing Seattle Center
Sun 12:31:17 PM 46.3308 -120.4656 120° Southeast 466 536 34,300 1,561 Climbing Seattle Center
Sun 12:32:18 PM 46.2497 -120.2692 121° Southeast 473 544 36,100 1,525 Climbing Seattle Center
Sun 12:33:19 PM 46.1825 -120.1053 121° Southeast 476 548 37,400 1,131 Climbing Seattle Center
Sun 12:34:20 PM 46.1156 -119.9428 121° Southeast 473 544 38,400 787 Climbing Seattle Center
Sun 12:35:21 PM 46.0483 -119.7803 121° Southeast 472 543 39,000 295 Climbing Seattle Center
Sun 12:36:22 PM 45.9775 -119.6125 121° Southeast 485 558 39,000  Level Seattle Center
Sun 12:37:24 PM 45.9050 -119.4403 121° Southeast 498 573 39,000  Level Seattle Center
Sun 12:38:25 PM 45.8292 -119.2633 122° Southeast 516 594 39,000  Level Seattle Center
Sun 12:39:26 PM 45.7531 -119.0828 121° Southeast 525 604 39,000  Level Seattle Center
Sun 12:40:27 PM 45.6769 -118.9028 121° Southeast 527 606 39,000  Level Seattle Center
Sun 12:41:28 PM 45.5983 -118.7239 122° Southeast 530 610 39,000  Level Seattle Center
Sun 12:42:29 PM 45.5214 -118.5458 122° Southeast 528 608 39,000  Level Seattle Center
Sun 12:43:30 PM 45.4436 -118.3672 122° Southeast 529 609 39,000  Level Seattle Center
Sun 12:44:31 PM 45.3658 -118.1911 122° Southeast 527 606 39,000  Level Seattle Center
Sun 12:45:32 PM 45.2881 -118.0147 122° Southeast 527 606 39,000  Level Seattle Center
Sun 12:46:34 PM 45.1933 -117.8011 122° Southeast 532 612 39,000  Level Seattle Center
Sun 12:47:35 PM 45.1158 -117.6303 123° Southeast 531 611 39,000  Level Seattle Center
Sun 12:48:17 PM 45.0653 -117.5186 123° Southeast 531 611 39,000  Level Salt Lake Center
Sun 12:49:19 PM 44.9750 -117.3211 123° Southeast 535 616 39,000  Level Salt Lake Center
Sun 12:50:21 PM 44.8986 -117.1519 122° Southeast 535 616 39,000  Level Salt Lake Center
Sun 12:51:23 PM 44.8081 -116.9542 123° Southeast 537 618 39,000  Level Salt Lake Center
Sun 12:52:26 PM 44.7308 -116.7856 123° Southeast 536 617 39,000  Level Salt Lake Center
Sun 12:53:28 PM 44.6406 -116.5906 123° Southeast 535 616 39,000  Level Salt Lake Center
Sun 12:54:30 PM 44.5628 -116.4242 123° Southeast 533 613 39,000  Level Salt Lake Center
Sun 12:55:32 PM 44.4792 -116.2469 123° Southeast 530 610 39,000  Level Salt Lake Center
Sun 12:56:34 PM 44.3858 -116.0464 123° Southeast 541 623 39,000  Level Salt Lake Center
Sun 12:57:36 PM 44.3064 -115.8797 124° Southeast 541 623 39,000  Level Salt Lake Center
Sun 12:58:38 PM 44.2147 -115.6897 124° Southeast 532 612 39,000  Level Salt Lake Center
Sun 12:59:40 PM 44.1336 -115.5225 124° Southeast 542 624 39,000  Level Salt Lake Center
Sun 01:00:42 PM 44.0411 -115.3308 124° Southeast 535 616 39,000  Level Salt Lake Center
Sun 01:01:44 PM 43.9606 -115.1672 124° Southeast 536 617 39,000  Level Salt Lake Center
Sun 01:02:46 PM 43.8811 -115.0039 124° Southeast 536 617 39,000  Level Salt Lake Center
Sun 01:03:48 PM 43.7878 -114.8144 124° Southeast 533 613 39,000  Level Salt Lake Center
Sun 01:04:50 PM 43.7078 -114.6525 124° Southeast 535 616 39,000  Level Salt Lake Center
Sun 01:05:52 PM 43.6150 -114.4647 124° Southeast 531 611 39,000  Level Salt Lake Center
Sun 01:06:54 PM 43.5331 -114.3053 125° Southeast 532 612 39,000  Level Salt Lake Center
Sun 01:07:56 PM 43.4397 -114.1189 125° Southeast 530 610 39,000  Level Salt Lake Center
Sun 01:08:58 PM 43.3592 -113.9592 125° Southeast 531 611 39,000  Level Salt Lake Center
Sun 01:10:00 PM 43.2719 -113.7900 125° Southeast 528 608 39,000  Level Salt Lake Center
Sun 01:11:02 PM 43.1786 -113.6072 125° Southeast 525 604 39,000  Level Salt Lake Center
Sun 01:12:04 PM 43.0972 -113.4522 126° Southeast 525 604 39,000  Level Salt Lake Center
Sun 01:13:06 PM 43.0022 -113.2686 125° Southeast 530 610 39,000  Level Salt Lake Center
Sun 01:14:08 PM 42.9214 -113.1128 125° Southeast 528 608 39,000  Level Salt Lake Center
Sun 01:15:10 PM 42.8261 -112.9325 126° Southeast 526 605 39,000  Level Salt Lake Center
Sun 01:16:13 PM 42.7442 -112.7778 126° Southeast 525 604 39,000  Level Salt Lake Center
Sun 01:17:15 PM 42.6594 -112.6200 126° Southeast 527 606 39,000  Level Salt Lake Center
Sun 01:18:17 PM 42.5742 -112.4589 126° Southeast 527 606 39,000  Level Salt Lake Center
Sun 01:19:19 PM 42.4700 -112.2692 127° Southeast 524 603 39,000  Level Salt Lake Center
Sun 01:20:21 PM 42.3842 -112.1092 126° Southeast 525 604 39,000  Level Salt Lake Center
Sun 01:21:23 PM 42.2978 -111.9511 126° Southeast 523 602 39,000  Level Salt Lake Center
Sun 01:22:25 PM 42.2108 -111.7914 126° Southeast 526 605 39,000  Level Salt Lake Center
Sun 01:23:27 PM 42.1236 -111.6328 127° Southeast 526 605 39,000  Level Salt Lake Center
Sun 01:24:29 PM 42.0358 -111.4731 126° Southeast 528 608 39,000  Level Salt Lake Center
Sun 01:25:31 PM 41.9300 -111.2825 127° Southeast 529 609 39,000  Level Salt Lake Center
Sun 01:26:33 PM 41.8403 -111.1250 127° Southeast 531 611 39,000  Level Salt Lake Center
Sun 01:27:35 PM 41.7517 -110.9661 127° Southeast 532 612 39,000  Level Salt Lake Center
Sun 01:28:37 PM 41.6647 -110.8133 127° Southeast 529 609 39,000  Level Salt Lake Center
Sun 01:29:39 PM 41.5656 -110.6372 127° Southeast 533 613 39,000  Level Salt Lake Center
Sun 01:30:41 PM 41.4806 -110.4875 127° Southeast 530 610 39,000  Level Salt Lake Center
Sun 01:31:43 PM 41.3806 -110.3139 127° Southeast 530 610 39,000  Level Salt Lake Center
Sun 01:32:45 PM 41.2939 -110.1650 128° Southeast 533 613 39,000  Level Salt Lake Center
Sun 01:33:47 PM 41.1939 -109.9922 128° Southeast 531 611 39,000  Level Salt Lake Center
Sun 01:34:49 PM 41.1067 -109.8431 128° Southeast 535 616 39,000  Level Salt Lake Center
Sun 01:35:51 PM 41.0056 -109.6706 128° Southeast 535 616 39,000  Level Salt Lake Center
Sun 01:36:53 PM 40.9183 -109.5225 128° Southeast 536 617 39,000  Level Salt Lake Center
Sun 01:37:55 PM 40.8211 -109.3583 128° Southeast 534 615 39,000  Level Salt Lake Center
Sun 01:38:57 PM 40.7325 -109.2106 128° Southeast 535 616 39,000  Level Salt Lake Center
Sun 01:39:50 PM 40.6456 -109.0586 127° Southeast 535 616 39,000 209 Level Denver Center
Sun 01:40:52 PM 40.5575 -108.9142 129° Southeast 530 610 39,400 774 Climbing Denver Center
Sun 01:41:54 PM 40.4592 -108.7481 128° Southeast 514 592 40,600 774 Climbing Denver Center
Sun 01:42:56 PM 40.3750 -108.6086 128° Southeast 508 585 41,000 194 Climbing Denver Center
Sun 01:43:58 PM 40.2747 -108.4464 129° Southeast 511 588 41,000  Level Denver Center
Sun 01:45:00 PM 40.1872 -108.3039 129° Southeast 516 594 41,000  Level Denver Center
Sun 01:46:14 PM 40.0844 -108.1364 129° Southeast 522 601 41,000  Level Denver Center
Sun 01:47:16 PM 39.9972 -107.9953 129° Southeast 520 598 41,000  Level Denver Center
Sun 01:48:19 PM 39.8806 -107.8072 129° Southeast 520 598 41,000  Level Denver Center
Sun 01:49:21 PM 39.7931 -107.6669 129° Southeast 519 597 41,000  Level Denver Center
Sun 01:50:23 PM 39.6906 -107.5056 130° Southeast 518 596 41,000  Level Denver Center
Sun 01:51:25 PM 39.6019 -107.3689 130° Southeast 516 594 41,000  Level Denver Center
Sun 01:52:39 PM 39.4994 -107.2081 130° Southeast 517 595 41,000  Level Denver Center
Sun 01:53:42 PM 39.3969 -107.0467 129° Southeast 518 596 41,000  Level Denver Center
Sun 01:54:44 PM 39.2964 -106.8861 129° Southeast 512 589 41,000  Level Denver Center
Sun 01:55:46 PM 39.2069 -106.7517 131° Southeast 513 590 41,000  Level Denver Center
Sun 01:56:48 PM 39.1044 -106.5919 130° Southeast 516 594 41,000  Level Denver Center
Sun 01:57:50 PM 39.0172 -106.4569 130° Southeast 513 590 41,000  Level Denver Center
Sun 01:58:52 PM 38.9133 -106.3003 130° Southeast 515 593 41,000  Level Denver Center
Sun 01:59:54 PM 38.8236 -106.1619 130° Southeast 514 592 41,000  Level Denver Center
Sun 02:00:56 PM 38.7325 -106.0231 130° Southeast 513 590 41,000  Level Denver Center
Sun 02:01:58 PM 38.6386 -105.8842 131° Southeast 518 596 41,000  Level Denver Center
Sun 02:03:00 PM 38.5478 -105.7450 130° Southeast 513 590 41,000  Level Denver Center
Sun 02:04:02 PM 38.4375 -105.5808 131° Southeast 513 590 41,000  Level Denver Center
Sun 02:05:04 PM 38.3447 -105.4433 131° Southeast 512 589 41,000  Level Denver Center
Sun 02:06:06 PM 38.2500 -105.3003 130° Southeast 519 597 41,000  Level Denver Center
Sun 02:07:08 PM 38.1594 -105.1694 131° Southeast 517 595 41,000  Level Denver Center
Sun 02:08:11 PM 38.0556 -105.0161 131° Southeast 514 592 41,000  Level Denver Center
Sun 02:09:13 PM 37.9644 -104.8839 131° Southeast 518 596 41,000  Level Denver Center
Sun 02:10:14 PM 37.8764 -104.7531 130° Southeast 512 589 41,000  Level Denver Center
Sun 02:11:17 PM 37.7711 -104.6014 131° Southeast 514 592 41,000  Level Denver Center
Sun 02:12:19 PM 37.6661 -104.4508 131° Southeast 513 590 41,000  Level Denver Center
Sun 02:13:21 PM 37.5764 -104.3233 132° Southeast 511 588 41,000  Level Denver Center
Sun 02:14:23 PM 37.4706 -104.1747 132° Southeast 516 594 41,000  Level Denver Center
Sun 02:15:25 PM 37.3686 -104.0247 131° Southeast 514 592 41,000  Level Denver Center
Sun 02:16:27 PM 37.2789 -103.8978 132° Southeast 511 588 41,000  Level Denver Center
Sun 02:17:42 PM 37.1594 -103.7267 131° Southeast 513 590 41,000  Level Denver Center
Sun 02:18:34 PM 37.0842 -103.6214 132° Southeast 513 590 41,000  Level Albuquerque Center
Sun 02:19:36 PM 36.9789 -103.4728 132° Southeast 511 588 41,000  Level Albuquerque Center
Sun 02:20:38 PM 36.8878 -103.3467 132° Southeast 510 587 41,000  Level Albuquerque Center
Sun 02:21:40 PM 36.7817 -103.1983 132° Southeast 512 589 41,000  Level Albuquerque Center
Sun 02:22:42 PM 36.6900 -103.0719 132° Southeast 512 589 41,000  Level Albuquerque Center
Sun 02:23:44 PM 36.5894 -102.9336 132° Southeast 518 596 41,000  Level Albuquerque Center
Sun 02:24:46 PM 36.4897 -102.7961 132° Southeast 515 593 41,000  Level Albuquerque Center
Sun 02:25:47 PM 36.3931 -102.6664 133° Southeast 513 590 41,000  Level Albuquerque Center
Sun 02:26:49 PM 36.2978 -102.5350 132° Southeast 512 589 41,000  Level Albuquerque Center
Sun 02:27:51 PM 36.2033 -102.4058 132° Southeast 508 585 41,000  Level Albuquerque Center
Sun 02:28:53 PM 36.0889 -102.2514 132° Southeast 507 583 41,000  Level Albuquerque Center
Sun 02:29:55 PM 35.9928 -102.1214 132° Southeast 512 589 41,000  Level Albuquerque Center
Sun 02:30:57 PM 35.8967 -101.9933 133° Southeast 509 586 41,000  Level Albuquerque Center
Sun 02:31:59 PM 35.8003 -101.8642 133° Southeast 510 587 41,000  Level Albuquerque Center
Sun 02:33:00 PM 35.7047 -101.7358 132° Southeast 507 583 41,000  Level Albuquerque Center
Sun 02:34:02 PM 35.6075 -101.6078 133° Southeast 509 586 41,000  Level Albuquerque Center
Sun 02:35:04 PM 35.4972 -101.4600 132° Southeast 510 587 41,000  Level Albuquerque Center
Sun 02:36:06 PM 35.4000 -101.3342 133° Southeast 510 587 41,000  Level Albuquerque Center
Sun 02:37:08 PM 35.3128 -101.2203 133° Southeast 514 592 41,000  Level Albuquerque Center
Sun 02:38:10 PM 35.1942 -101.0667 133° Southeast 515 593 41,000  Level Albuquerque Center
Sun 02:39:11 PM 35.0969 -100.9400 133° Southeast 511 588 41,000  Level Albuquerque Center
Sun 02:40:13 PM 34.9989 -100.8133 133° Southeast 512 589 41,000  Level Albuquerque Center
Sun 02:41:15 PM 34.9014 -100.6867 133° Southeast 513 590 41,000  Level Albuquerque Center
Sun 02:42:17 PM 34.8028 -100.5614 134° Southeast 512 589 41,000  Level Albuquerque Center
Sun 02:43:19 PM 34.7053 -100.4353 133° Southeast 511 588 41,000  Level Albuquerque Center
Sun 02:44:21 PM 34.6075 -100.3092 133° Southeast 513 590 41,000  Level Albuquerque Center
Sun 02:45:22 PM 34.4894 -100.1600 134° Southeast 512 589 41,000  Level Albuquerque Center
Sun 02:46:09 PM 34.4142 -100.0667 134° Southeast 507 583 41,000  Level Fort Worth Center
Sun 02:47:09 PM 34.3144 -99.9456 135° Southeast 507 583 41,000  Level Fort Worth Center
Sun 02:48:09 PM 34.2169 -99.8169 132° Southeast 507 583 41,000  Level Fort Worth Center
Sun 02:49:09 PM 34.1192 -99.6939 134° Southeast 512 589 41,000  Level Fort Worth Center
Sun 02:50:09 PM 34.0192 -99.5711 134° Southeast 512 589 41,000  Level Fort Worth Center
Sun 02:51:09 PM 33.9189 -99.4458 134° Southeast 512 589 41,000  Level Fort Worth Center
Sun 02:52:09 PM 33.8206 -99.3236 134° Southeast 512 589 41,000  Level Fort Worth Center
Sun 02:53:09 PM 33.7222 -99.1992 134° Southeast 512 589 41,000  Level Fort Worth Center
Sun 02:54:09 PM 33.6300 -99.0875 135° Southeast 512 589 41,000  Level Fort Worth Center
Sun 02:55:09 PM 33.5189 -98.9508 134° Southeast 512 589 41,000  Level Fort Worth Center
Sun 02:56:09 PM 33.4181 -98.8294 135° Southeast 512 589 41,000  Level Fort Worth Center
Sun 02:57:09 PM 33.3192 -98.7061 134° Southeast 512 589 41,000  Level Fort Worth Center
Sun 02:58:09 PM 33.2161 -98.5856 136° Southeast 512 589 41,000  Level Fort Worth Center
Sun 02:59:09 PM 33.1169 -98.4650 134° Southeast 512 589 41,000  Level Fort Worth Center
Sun 03:00:09 PM 33.0281 -98.3625 136° Southeast 507 583 41,000  Level Fort Worth Center
Sun 03:01:09 PM 32.9286 -98.2400 134° Southeast 507 583 41,000  Level Fort Worth Center
Sun 03:02:09 PM 32.8292 -98.1206 135° Southeast 507 583 41,000  Level Fort Worth Center
Sun 03:03:09 PM 32.7275 -98.0086 137° Southeast 507 583 41,000  Level Fort Worth Center
Sun 03:04:09 PM 32.6047 -97.9164 148° Southeast 507 583 41,000  Level Fort Worth Center
Sun 03:05:09 PM 32.4819 -97.8319 150° Southeast 507 583 41,000  Level Fort Worth Center
Sun 03:06:09 PM 32.3569 -97.7478 150° Southeast 507 583 41,000  Level Fort Worth Center
Sun 03:07:10 PM 32.2361 -97.6639 150° Southeast 512 589 41,000  Level Fort Worth Center
Sun 03:08:09 PM 32.1297 -97.5581 140° Southeast 507 583 41,000  Level Fort Worth Center
Sun 03:09:09 PM 32.0297 -97.4453 136° Southeast 498 573 41,000 -650 Level Fort Worth Center
Sun 03:10:09 PM 31.9314 -97.3278 135° Southeast 498 573 39,700 -1,608 Descending Fort Worth Center
Sun 03:10:46 PM 31.8603 -97.2661 144° Southeast 498 573 38,400 -1,879 Descending Houston Center
Sun 03:11:48 PM 31.7353 -97.1797 150° Southeast 513 590 36,600 -1,790 Descending Houston Center
Sun 03:12:50 PM 31.6075 -97.0911 149° Southeast 524 603 34,700 -1,790 Descending Houston Center
Sun 03:13:52 PM 31.4803 -97.0058 150° Southeast 521 600 32,900 -1,790 Descending Houston Center
Sun 03:14:54 PM 31.3489 -96.9217 151° Southeast 526 605 31,000 -1,920 Descending Houston Center
Sun 03:15:57 PM 31.1914 -96.8275 153° Southeast 532 612 28,900 -2,112 Descending Houston Center
Sun 03:16:59 PM 31.0603 -96.7483 153° Southeast 527 606 26,600 -2,516 Descending Houston Center
Sun 03:18:01 PM 30.9336 -96.6739 153° Southeast 509 586 23,700 -2,903 Descending Houston Center
Sun 03:19:03 PM 30.8139 -96.6033 153° Southeast 486 559 20,600 -3,056 Descending Houston Center
Sun 03:19:49 PM 30.7211 -96.5506 154° Southeast 463 533 18,200 -2,842 Descending Houston Center
Sun 03:20:57 PM 30.6042 -96.4808 153° Southeast 411 473 15,200 -2,667 Descending Houston Center
Sun 03:22:04 PM 30.5000 -96.4147 151° Southeast 376 433 12,200 -2,344 Descending Houston Center
Sun 03:23:05 PM 30.4303 -96.3331 135° Southeast 342 394 10,200 -1,574 Descending Houston Center
Sun 03:24:06 PM 30.3719 -96.2619 134° Southeast 273 314 9,000 -1,538 Descending Houston Center
Sun 03:25:02 PM 30.3294 -96.2064 132° Southeast 247 284 7,200 -1,951 Descending Houston Center
Sun 03:26:09 PM 30.2639 -96.1508 144° Southeast 250 288 5,000 -1,031 Descending Houston Center
Sun 03:27:10 PM 30.2089 -96.0967 140° Southeast 249 287 5,000  Level Houston Center
Sun 03:28:12 PM 30.1561 -96.0422 138° Southeast 250 288 5,000  Level Houston Center
Sun 03:29:13 PM 30.0989 -95.9883 141° Southeast 255 293 5,000 -443 Level Houston Center
Sun 03:30:14 PM 30.0461 -95.9367 140° Southeast 248 285 4,100 -1,179 Descending Houston Center
Sun 03:31:10 PM 29.9928 -95.9017 150° Southeast 234 269 2,700 -1,077 Descending Houston Center
Sun 03:32:11 PM 29.9294 -95.8994 178° South 217 250 2,000 -689 Descending Houston Center

Login

Don't have an account? Register now (free) for customized features, flight alerts, and more!